sensor_id;sensor_type;location;lat;lon;timestamp;P1;durP1;ratioP1;P2;durP2;ratioP2
14837;SDS011;7510;59.296;18.106;2022-09-20T00:01:25;1.70;;;1.07;;
14837;SDS011;7510;59.296;18.106;2022-09-20T00:03:53;0.97;;;0.97;;
14837;SDS011;7510;59.296;18.106;2022-09-20T00:06:21;0.97;;;0.93;;
14837;SDS011;7510;59.296;18.106;2022-09-20T00:08:49;2.47;;;1.10;;
14837;SDS011;7510;59.296;18.106;2022-09-20T00:11:16;1.30;;;1.20;;
14837;SDS011;7510;59.296;18.106;2022-09-20T00:13:47;1.67;;;1.17;;
14837;SDS011;7510;59.296;18.106;2022-09-20T00:16:15;1.80;;;1.00;;
14837;SDS011;7510;59.296;18.106;2022-09-20T00:18:46;1.03;;;1.03;;
14837;SDS011;7510;59.296;18.106;2022-09-20T00:21:17;1.37;;;1.23;;
14837;SDS011;7510;59.296;18.106;2022-09-20T00:23:44;1.60;;;1.10;;
14837;SDS011;7510;59.296;18.106;2022-09-20T00:26:10;3.17;;;1.27;;
14837;SDS011;7510;59.296;18.106;2022-09-20T00:28:37;1.20;;;1.10;;
14837;SDS011;7510;59.296;18.106;2022-09-20T00:31:03;1.37;;;1.23;;
14837;SDS011;7510;59.296;18.106;2022-09-20T00:33:29;5.40;;;1.17;;
14837;SDS011;7510;59.296;18.106;2022-09-20T00:36:13;1.10;;;1.00;;
14837;SDS011;7510;59.296;18.106;2022-09-20T00:38:39;1.70;;;1.10;;
14837;SDS011;7510;59.296;18.106;2022-09-20T00:41:04;1.80;;;1.00;;
14837;SDS011;7510;59.296;18.106;2022-09-20T00:43:40;1.30;;;1.20;;
14837;SDS011;7510;59.296;18.106;2022-09-20T00:46:16;1.27;;;1.17;;
14837;SDS011;7510;59.296;18.106;2022-09-20T00:49:00;1.27;;;1.13;;
14837;SDS011;7510;59.296;18.106;2022-09-20T00:51:33;0.93;;;0.80;;
14837;SDS011;7510;59.296;18.106;2022-09-20T00:54:00;1.10;;;1.00;;
14837;SDS011;7510;59.296;18.106;2022-09-20T00:56:30;1.67;;;0.97;;
14837;SDS011;7510;59.296;18.106;2022-09-20T01:01:27;2.13;;;0.83;;
14837;SDS011;7510;59.296;18.106;2022-09-20T01:03:52;1.13;;;1.00;;
14837;SDS011;7510;59.296;18.106;2022-09-20T01:06:18;1.43;;;1.27;;
14837;SDS011;7510;59.296;18.106;2022-09-20T01:08:45;1.67;;;1.20;;
14837;SDS011;7510;59.296;18.106;2022-09-20T01:11:13;2.67;;;1.13;;
14837;SDS011;7510;59.296;18.106;2022-09-20T01:13:39;1.93;;;0.70;;
14837;SDS011;7510;59.296;18.106;2022-09-20T01:16:04;1.00;;;0.87;;
14837;SDS011;7510;59.296;18.106;2022-09-20T01:18:31;1.10;;;0.97;;
14837;SDS011;7510;59.296;18.106;2022-09-20T01:20:59;1.30;;;0.70;;
14837;SDS011;7510;59.296;18.106;2022-09-20T01:23:41;1.03;;;0.90;;
14837;SDS011;7510;59.296;18.106;2022-09-20T01:31:40;1.57;;;0.97;;
14837;SDS011;7510;59.296;18.106;2022-09-20T01:34:12;2.00;;;0.80;;
14837;SDS011;7510;59.296;18.106;2022-09-20T01:36:44;1.17;;;1.00;;
14837;SDS011;7510;59.296;18.106;2022-09-20T01:39:33;1.67;;;1.00;;
14837;SDS011;7510;59.296;18.106;2022-09-20T01:42:12;0.70;;;0.60;;
14837;SDS011;7510;59.296;18.106;2022-09-20T01:58:50;1.40;;;1.10;;
14837;SDS011;7510;59.296;18.106;2022-09-20T02:21:42;2.40;;;0.90;;
14837;SDS011;7510;59.296;18.106;2022-09-20T02:24:21;2.30;;;0.90;;
14837;SDS011;7510;59.296;18.106;2022-09-20T02:27:11;2.17;;;0.57;;
14837;SDS011;7510;59.296;18.106;2022-09-20T02:29:51;0.80;;;0.80;;
14837;SDS011;7510;59.296;18.106;2022-09-20T02:33:20;1.67;;;0.77;;
14837;SDS011;7510;59.296;18.106;2022-09-20T02:43:55;1.47;;;0.80;;
14837;SDS011;7510;59.296;18.106;2022-09-20T02:46:37;2.77;;;0.90;;
14837;SDS011;7510;59.296;18.106;2022-09-20T02:52:10;1.40;;;0.90;;
14837;SDS011;7510;59.296;18.106;2022-09-20T02:57:24;2.23;;;0.80;;
14837;SDS011;7510;59.296;18.106;2022-09-20T03:00:02;0.77;;;0.73;;
14837;SDS011;7510;59.296;18.106;2022-09-20T03:15:56;0.83;;;0.40;;
14837;SDS011;7510;59.296;18.106;2022-09-20T03:33:09;0.90;;;0.90;;
14837;SDS011;7510;59.296;18.106;2022-09-20T03:46:21;2.30;;;1.00;;
14837;SDS011;7510;59.296;18.106;2022-09-20T03:55:18;2.27;;;1.10;;
14837;SDS011;7510;59.296;18.106;2022-09-20T04:00:36;3.30;;;1.23;;
14837;SDS011;7510;59.296;18.106;2022-09-20T04:09:03;1.60;;;0.97;;
14837;SDS011;7510;59.296;18.106;2022-09-20T04:11:36;1.40;;;1.20;;
14837;SDS011;7510;59.296;18.106;2022-09-20T04:19:50;0.87;;;0.87;;
14837;SDS011;7510;59.296;18.106;2022-09-20T04:22:22;2.70;;;0.80;;
14837;SDS011;7510;59.296;18.106;2022-09-20T04:24:55;3.60;;;0.70;;
14837;SDS011;7510;59.296;18.106;2022-09-20T04:27:27;1.53;;;1.30;;
14837;SDS011;7510;59.296;18.106;2022-09-20T04:30:05;1.00;;;0.80;;
14837;SDS011;7510;59.296;18.106;2022-09-20T04:32:41;2.00;;;0.70;;
14837;SDS011;7510;59.296;18.106;2022-09-20T04:35:29;1.70;;;1.07;;
14837;SDS011;7510;59.296;18.106;2022-09-20T04:38:16;4.33;;;1.00;;
14837;SDS011;7510;59.296;18.106;2022-09-20T04:53:20;5.73;;;0.97;;
14837;SDS011;7510;59.296;18.106;2022-09-20T04:59:01;0.67;;;0.60;;
14837;SDS011;7510;59.296;18.106;2022-09-20T05:23:45;0.87;;;0.80;;
14837;SDS011;7510;59.296;18.106;2022-09-20T05:29:25;2.33;;;1.27;;
14837;SDS011;7510;59.296;18.106;2022-09-20T05:32:00;3.53;;;0.90;;
14837;SDS011;7510;59.296;18.106;2022-09-20T05:35:03;1.90;;;1.00;;
14837;SDS011;7510;59.296;18.106;2022-09-20T05:43:10;0.97;;;0.93;;
14837;SDS011;7510;59.296;18.106;2022-09-20T05:48:26;3.03;;;1.10;;
14837;SDS011;7510;59.296;18.106;2022-09-20T05:53:57;1.00;;;0.90;;
14837;SDS011;7510;59.296;18.106;2022-09-20T05:56:33;1.37;;;1.20;;
14837;SDS011;7510;59.296;18.106;2022-09-20T05:59:04;2.87;;;1.00;;
14837;SDS011;7510;59.296;18.106;2022-09-20T06:04:21;1.33;;;1.00;;
14837;SDS011;7510;59.296;18.106;2022-09-20T06:06:56;2.43;;;1.13;;
14837;SDS011;7510;59.296;18.106;2022-09-20T06:22:49;2.80;;;1.03;;
14837;SDS011;7510;59.296;18.106;2022-09-20T06:25:25;0.70;;;0.70;;
14837;SDS011;7510;59.296;18.106;2022-09-20T06:28:00;0.83;;;0.60;;
14837;SDS011;7510;59.296;18.106;2022-09-20T06:30:47;2.30;;;0.77;;
14837;SDS011;7510;59.296;18.106;2022-09-20T06:33:18;1.67;;;0.63;;
14837;SDS011;7510;59.296;18.106;2022-09-20T06:42:14;1.27;;;0.80;;
14837;SDS011;7510;59.296;18.106;2022-09-20T06:44:39;1.52;;;0.60;;
14837;SDS011;7510;59.296;18.106;2022-09-20T06:47:08;3.95;;;1.00;;
14837;SDS011;7510;59.296;18.106;2022-09-20T06:49:34;1.52;;;0.90;;
14837;SDS011;7510;59.296;18.106;2022-09-20T06:52:02;0.90;;;0.80;;
14837;SDS011;7510;59.296;18.106;2022-09-20T06:54:29;1.48;;;0.60;;
14837;SDS011;7510;59.296;18.106;2022-09-20T06:56:54;2.33;;;0.70;;
14837;SDS011;7510;59.296;18.106;2022-09-20T06:59:20;2.55;;;0.65;;
14837;SDS011;7510;59.296;18.106;2022-09-20T07:01:46;2.95;;;0.80;;
14837;SDS011;7510;59.296;18.106;2022-09-20T07:04:11;1.40;;;0.85;;
14837;SDS011;7510;59.296;18.106;2022-09-20T07:06:37;2.25;;;1.02;;
14837;SDS011;7510;59.296;18.106;2022-09-20T07:09:03;1.50;;;0.57;;
14837;SDS011;7510;59.296;18.106;2022-09-20T07:11:29;0.65;;;0.60;;
14837;SDS011;7510;59.296;18.106;2022-09-20T07:13:56;1.73;;;0.60;;
14837;SDS011;7510;59.296;18.106;2022-09-20T07:16:22;2.95;;;0.98;;
14837;SDS011;7510;59.296;18.106;2022-09-20T07:18:48;0.52;;;0.47;;
14837;SDS011;7510;59.296;18.106;2022-09-20T07:21:16;2.45;;;0.63;;
14837;SDS011;7510;59.296;18.106;2022-09-20T07:23:42;2.53;;;0.85;;
14837;SDS011;7510;59.296;18.106;2022-09-20T07:26:33;2.40;;;0.57;;
14837;SDS011;7510;59.296;18.106;2022-09-20T07:28:59;0.43;;;0.40;;
14837;SDS011;7510;59.296;18.106;2022-09-20T07:31:25;0.60;;;0.60;;
14837;SDS011;7510;59.296;18.106;2022-09-20T07:33:52;2.92;;;0.70;;
14837;SDS011;7510;59.296;18.106;2022-09-20T07:36:18;0.57;;;0.55;;
14837;SDS011;7510;59.296;18.106;2022-09-20T07:38:50;1.13;;;0.60;;
14837;SDS011;7510;59.296;18.106;2022-09-20T07:41:17;1.88;;;0.45;;
14837;SDS011;7510;59.296;18.106;2022-09-20T07:43:43;1.40;;;0.75;;
14837;SDS011;7510;59.296;18.106;2022-09-20T07:46:09;0.47;;;0.47;;
14837;SDS011;7510;59.296;18.106;2022-09-20T07:48:37;1.30;;;0.63;;
14837;SDS011;7510;59.296;18.106;2022-09-20T07:51:05;0.73;;;0.50;;
14837;SDS011;7510;59.296;18.106;2022-09-20T07:53:32;1.52;;;0.90;;
14837;SDS011;7510;59.296;18.106;2022-09-20T07:56:09;0.60;;;0.60;;
14837;SDS011;7510;59.296;18.106;2022-09-20T07:58:36;2.28;;;0.50;;
14837;SDS011;7510;59.296;18.106;2022-09-20T08:01:03;2.30;;;0.57;;
14837;SDS011;7510;59.296;18.106;2022-09-20T08:03:31;1.27;;;0.50;;
14837;SDS011;7510;59.296;18.106;2022-09-20T08:05:58;1.85;;;0.35;;
14837;SDS011;7510;59.296;18.106;2022-09-20T08:08:30;0.57;;;0.50;;
14837;SDS011;7510;59.296;18.106;2022-09-20T08:11:00;0.60;;;0.50;;
14837;SDS011;7510;59.296;18.106;2022-09-20T08:13:29;1.10;;;0.68;;
14837;SDS011;7510;59.296;18.106;2022-09-20T08:16:01;1.48;;;0.60;;
14837;SDS011;7510;59.296;18.106;2022-09-20T08:18:28;1.95;;;0.70;;
14837;SDS011;7510;59.296;18.106;2022-09-20T08:20:55;1.55;;;0.50;;
14837;SDS011;7510;59.296;18.106;2022-09-20T08:23:20;3.72;;;0.80;;
14837;SDS011;7510;59.296;18.106;2022-09-20T08:25:46;1.98;;;0.40;;
14837;SDS011;7510;59.296;18.106;2022-09-20T08:28:13;2.28;;;0.30;;
14837;SDS011;7510;59.296;18.106;2022-09-20T08:30:38;2.25;;;0.88;;
14837;SDS011;7510;59.296;18.106;2022-09-20T08:33:04;2.78;;;0.30;;
14837;SDS011;7510;59.296;18.106;2022-09-20T08:35:33;1.40;;;0.65;;
14837;SDS011;7510;59.296;18.106;2022-09-20T08:37:59;1.08;;;0.40;;
14837;SDS011;7510;59.296;18.106;2022-09-20T08:40:24;0.45;;;0.20;;
14837;SDS011;7510;59.296;18.106;2022-09-20T08:42:53;1.60;;;0.40;;
14837;SDS011;7510;59.296;18.106;2022-09-20T08:45:23;2.10;;;0.43;;
14837;SDS011;7510;59.296;18.106;2022-09-20T08:47:54;3.60;;;0.70;;
14837;SDS011;7510;59.296;18.106;2022-09-20T08:50:23;1.95;;;0.85;;
14837;SDS011;7510;59.296;18.106;2022-09-20T08:52:50;0.30;;;0.30;;
14837;SDS011;7510;59.296;18.106;2022-09-20T08:57:47;3.22;;;0.50;;
14837;SDS011;7510;59.296;18.106;2022-09-20T09:00:24;3.55;;;0.45;;
14837;SDS011;7510;59.296;18.106;2022-09-20T09:02:55;2.05;;;0.70;;
14837;SDS011;7510;59.296;18.106;2022-09-20T09:07:50;1.45;;;0.38;;
14837;SDS011;7510;59.296;18.106;2022-09-20T09:10:16;1.63;;;0.60;;
14837;SDS011;7510;59.296;18.106;2022-09-20T09:12:41;0.25;;;0.25;;
14837;SDS011;7510;59.296;18.106;2022-09-20T09:15:32;1.42;;;0.70;;
14837;SDS011;7510;59.296;18.106;2022-09-20T09:17:59;1.02;;;0.47;;
14837;SDS011;7510;59.296;18.106;2022-09-20T09:20:25;1.75;;;0.35;;
14837;SDS011;7510;59.296;18.106;2022-09-20T09:23:00;1.40;;;0.45;;
14837;SDS011;7510;59.296;18.106;2022-09-20T09:25:30;1.95;;;0.40;;
14837;SDS011;7510;59.296;18.106;2022-09-20T09:30:36;1.63;;;0.68;;
14837;SDS011;7510;59.296;18.106;2022-09-20T09:33:14;0.90;;;0.47;;
14837;SDS011;7510;59.296;18.106;2022-09-20T09:36:03;1.60;;;0.50;;
14837;SDS011;7510;59.296;18.106;2022-09-20T09:38:39;0.77;;;0.52;;
14837;SDS011;7510;59.296;18.106;2022-09-20T09:41:42;0.47;;;0.40;;
14837;SDS011;7510;59.296;18.106;2022-09-20T09:44:02;5.38;;;0.70;;
14837;SDS011;7510;59.296;18.106;2022-09-20T09:46:32;1.65;;;0.70;;
14837;SDS011;7510;59.296;18.106;2022-09-20T09:49:17;0.55;;;0.47;;
14837;SDS011;7510;59.296;18.106;2022-09-20T09:54:57;1.80;;;1.60;;
14837;SDS011;7510;59.296;18.106;2022-09-20T09:57:42;1.13;;;0.77;;
14837;SDS011;7510;59.296;18.106;2022-09-20T10:00:11;2.97;;;0.50;;
14837;SDS011;7510;59.296;18.106;2022-09-20T10:05:45;1.92;;;0.73;;
14837;SDS011;7510;59.296;18.106;2022-09-20T10:19:25;1.65;;;0.60;;
14837;SDS011;7510;59.296;18.106;2022-09-20T10:25:01;1.35;;;0.50;;
14837;SDS011;7510;59.296;18.106;2022-09-20T10:38:59;1.63;;;0.60;;
14837;SDS011;7510;59.296;18.106;2022-09-20T10:55:00;2.60;;;0.68;;
14837;SDS011;7510;59.296;18.106;2022-09-20T11:05:51;0.85;;;0.50;;
14837;SDS011;7510;59.296;18.106;2022-09-20T11:08:27;0.95;;;0.60;;
14837;SDS011;7510;59.296;18.106;2022-09-20T11:11:04;1.33;;;0.65;;
14837;SDS011;7510;59.296;18.106;2022-09-20T11:16:24;1.58;;;0.80;;
14837;SDS011;7510;59.296;18.106;2022-09-20T11:21:43;5.28;;;1.23;;
14837;SDS011;7510;59.296;18.106;2022-09-20T11:24:21;2.05;;;0.60;;
14837;SDS011;7510;59.296;18.106;2022-09-20T11:26:59;1.45;;;0.43;;
14837;SDS011;7510;59.296;18.106;2022-09-20T11:29:36;2.45;;;0.80;;
14837;SDS011;7510;59.296;18.106;2022-09-20T11:32:12;0.57;;;0.57;;
14837;SDS011;7510;59.296;18.106;2022-09-20T11:34:52;1.95;;;0.63;;
14837;SDS011;7510;59.296;18.106;2022-09-20T11:37:21;2.72;;;0.50;;
14837;SDS011;7510;59.296;18.106;2022-09-20T11:39:50;1.25;;;0.60;;
14837;SDS011;7510;59.296;18.106;2022-09-20T11:42:21;1.42;;;0.65;;
14837;SDS011;7510;59.296;18.106;2022-09-20T11:44:51;0.55;;;0.40;;
14837;SDS011;7510;59.296;18.106;2022-09-20T11:47:20;1.65;;;0.50;;
14837;SDS011;7510;59.296;18.106;2022-09-20T11:57:58;2.13;;;0.75;;
14837;SDS011;7510;59.296;18.106;2022-09-20T12:00:32;0.75;;;0.70;;
14837;SDS011;7510;59.296;18.106;2022-09-20T12:03:02;4.95;;;0.68;;
14837;SDS011;7510;59.296;18.106;2022-09-20T12:05:38;0.95;;;0.55;;
14837;SDS011;7510;59.296;18.106;2022-09-20T12:10:54;2.22;;;0.80;;
14837;SDS011;7510;59.296;18.106;2022-09-20T12:13:28;1.80;;;0.70;;
14837;SDS011;7510;59.296;18.106;2022-09-20T12:16:15;0.70;;;0.32;;
14837;SDS011;7510;59.296;18.106;2022-09-20T12:18:46;2.33;;;0.55;;
14837;SDS011;7510;59.296;18.106;2022-09-20T12:21:25;5.80;;;1.05;;
14837;SDS011;7510;59.296;18.106;2022-09-20T12:28:55;0.50;;;0.50;;
14837;SDS011;7510;59.296;18.106;2022-09-20T12:36:21;2.47;;;0.80;;
14837;SDS011;7510;59.296;18.106;2022-09-20T12:38:47;1.25;;;0.55;;
14837;SDS011;7510;59.296;18.106;2022-09-20T12:44:21;2.72;;;0.65;;
14837;SDS011;7510;59.296;18.106;2022-09-20T12:47:06;1.02;;;0.63;;
14837;SDS011;7510;59.296;18.106;2022-09-20T12:52:46;1.30;;;0.60;;
14837;SDS011;7510;59.296;18.106;2022-09-20T12:57:57;2.05;;;0.90;;
14837;SDS011;7510;59.296;18.106;2022-09-20T13:00:36;1.02;;;0.63;;
14837;SDS011;7510;59.296;18.106;2022-09-20T13:08:48;2.85;;;0.75;;
14837;SDS011;7510;59.296;18.106;2022-09-20T13:19:04;1.45;;;0.63;;
14837;SDS011;7510;59.296;18.106;2022-09-20T13:21:37;0.50;;;0.43;;
14837;SDS011;7510;59.296;18.106;2022-09-20T13:24:11;0.70;;;0.52;;
14837;SDS011;7510;59.296;18.106;2022-09-20T13:26:43;0.45;;;0.45;;
14837;SDS011;7510;59.296;18.106;2022-09-20T13:29:30;1.20;;;0.63;;
14837;SDS011;7510;59.296;18.106;2022-09-20T13:34:41;1.60;;;0.40;;
14837;SDS011;7510;59.296;18.106;2022-09-20T13:37:07;1.40;;;0.70;;
14837;SDS011;7510;59.296;18.106;2022-09-20T13:39:44;2.30;;;0.60;;
14837;SDS011;7510;59.296;18.106;2022-09-20T13:42:11;1.95;;;0.93;;
14837;SDS011;7510;59.296;18.106;2022-09-20T13:44:43;0.75;;;0.70;;
14837;SDS011;7510;59.296;18.106;2022-09-20T13:47:23;1.45;;;0.40;;
14837;SDS011;7510;59.296;18.106;2022-09-20T13:49:58;0.70;;;0.52;;
14837;SDS011;7510;59.296;18.106;2022-09-20T13:52:45;1.95;;;0.80;;
14837;SDS011;7510;59.296;18.106;2022-09-20T13:55:37;0.70;;;0.60;;
14837;SDS011;7510;59.296;18.106;2022-09-20T13:58:07;1.25;;;0.70;;
14837;SDS011;7510;59.296;18.106;2022-09-20T14:00:45;4.28;;;1.10;;
14837;SDS011;7510;59.296;18.106;2022-09-20T14:03:16;1.27;;;0.80;;
14837;SDS011;7510;59.296;18.106;2022-09-20T14:05:47;2.38;;;0.65;;
14837;SDS011;7510;59.296;18.106;2022-09-20T14:08:37;0.57;;;0.57;;
14837;SDS011;7510;59.296;18.106;2022-09-20T14:11:04;2.25;;;0.50;;
14837;SDS011;7510;59.296;18.106;2022-09-20T14:13:36;2.35;;;0.50;;
14837;SDS011;7510;59.296;18.106;2022-09-20T14:16:06;1.00;;;0.75;;
14837;SDS011;7510;59.296;18.106;2022-09-20T14:18:34;2.38;;;0.88;;
14837;SDS011;7510;59.296;18.106;2022-09-20T14:21:01;1.25;;;0.60;;
14837;SDS011;7510;59.296;18.106;2022-09-20T14:23:28;0.52;;;0.45;;
14837;SDS011;7510;59.296;18.106;2022-09-20T14:28:41;0.90;;;0.70;;
14837;SDS011;7510;59.296;18.106;2022-09-20T14:31:11;1.98;;;0.90;;
14837;SDS011;7510;59.296;18.106;2022-09-20T14:33:41;1.60;;;0.55;;
14837;SDS011;7510;59.296;18.106;2022-09-20T14:36:12;2.78;;;0.60;;
14837;SDS011;7510;59.296;18.106;2022-09-20T14:38:44;4.28;;;0.85;;
14837;SDS011;7510;59.296;18.106;2022-09-20T14:41:12;1.08;;;0.60;;
14837;SDS011;7510;59.296;18.106;2022-09-20T14:43:38;1.67;;;0.50;;
14837;SDS011;7510;59.296;18.106;2022-09-20T14:46:11;1.10;;;0.60;;
14837;SDS011;7510;59.296;18.106;2022-09-20T14:48:40;0.77;;;0.43;;
14837;SDS011;7510;59.296;18.106;2022-09-20T14:53:34;1.77;;;0.80;;
14837;SDS011;7510;59.296;18.106;2022-09-20T14:58:30;1.15;;;0.43;;
14837;SDS011;7510;59.296;18.106;2022-09-20T15:03:33;2.53;;;0.50;;
14837;SDS011;7510;59.296;18.106;2022-09-20T15:06:02;1.20;;;0.60;;
14837;SDS011;7510;59.296;18.106;2022-09-20T15:08:28;2.25;;;0.70;;
14837;SDS011;7510;59.296;18.106;2022-09-20T15:10:54;0.30;;;0.30;;
14837;SDS011;7510;59.296;18.106;2022-09-20T15:13:19;0.73;;;0.50;;
14837;SDS011;7510;59.296;18.106;2022-09-20T15:15:49;2.87;;;0.63;;
14837;SDS011;7510;59.296;18.106;2022-09-20T15:18:26;1.33;;;0.50;;
14837;SDS011;7510;59.296;18.106;2022-09-20T15:20:55;1.00;;;0.40;;
14837;SDS011;7510;59.296;18.106;2022-09-20T15:23:20;0.67;;;0.30;;
14837;SDS011;7510;59.296;18.106;2022-09-20T15:25:49;1.23;;;0.80;;
14837;SDS011;7510;59.296;18.106;2022-09-20T15:28:16;6.60;;;1.23;;
14837;SDS011;7510;59.296;18.106;2022-09-20T15:30:43;1.92;;;0.50;;
14837;SDS011;7510;59.296;18.106;2022-09-20T15:33:09;1.27;;;0.55;;
14837;SDS011;7510;59.296;18.106;2022-09-20T15:35:36;0.47;;;0.43;;
14837;SDS011;7510;59.296;18.106;2022-09-20T15:38:02;0.70;;;0.40;;
14837;SDS011;7510;59.296;18.106;2022-09-20T15:40:28;1.40;;;0.37;;
14837;SDS011;7510;59.296;18.106;2022-09-20T15:42:56;0.60;;;0.30;;
14837;SDS011;7510;59.296;18.106;2022-09-20T15:45:24;0.50;;;0.50;;
14837;SDS011;7510;59.296;18.106;2022-09-20T15:47:52;4.43;;;0.50;;
14837;SDS011;7510;59.296;18.106;2022-09-20T15:50:19;1.83;;;0.60;;
14837;SDS011;7510;59.296;18.106;2022-09-20T15:52:47;0.97;;;0.57;;
14837;SDS011;7510;59.296;18.106;2022-09-20T15:55:14;2.30;;;0.57;;
14837;SDS011;7510;59.296;18.106;2022-09-20T15:57:39;2.03;;;0.47;;
14837;SDS011;7510;59.296;18.106;2022-09-20T16:00:06;0.40;;;0.40;;
14837;SDS011;7510;59.296;18.106;2022-09-20T16:02:32;3.40;;;0.30;;
14837;SDS011;7510;59.296;18.106;2022-09-20T16:04:57;2.35;;;0.45;;
14837;SDS011;7510;59.296;18.106;2022-09-20T16:07:23;1.00;;;0.60;;
14837;SDS011;7510;59.296;18.106;2022-09-20T16:09:54;0.40;;;0.30;;
14837;SDS011;7510;59.296;18.106;2022-09-20T16:12:21;1.03;;;0.77;;
14837;SDS011;7510;59.296;18.106;2022-09-20T16:14:48;1.10;;;0.37;;
14837;SDS011;7510;59.296;18.106;2022-09-20T16:17:14;1.30;;;0.50;;
14837;SDS011;7510;59.296;18.106;2022-09-20T16:19:41;2.50;;;0.87;;
14837;SDS011;7510;59.296;18.106;2022-09-20T16:22:10;1.73;;;0.40;;
14837;SDS011;7510;59.296;18.106;2022-09-20T16:24:36;1.37;;;0.50;;
14837;SDS011;7510;59.296;18.106;2022-09-20T16:27:03;2.07;;;0.33;;
14837;SDS011;7510;59.296;18.106;2022-09-20T16:29:30;2.37;;;0.50;;
14837;SDS011;7510;59.296;18.106;2022-09-20T16:31:56;2.20;;;0.40;;
14837;SDS011;7510;59.296;18.106;2022-09-20T16:34:23;0.90;;;0.27;;
14837;SDS011;7510;59.296;18.106;2022-09-20T16:36:54;0.63;;;0.40;;
14837;SDS011;7510;59.296;18.106;2022-09-20T16:39:22;2.07;;;0.53;;
14837;SDS011;7510;59.296;18.106;2022-09-20T16:41:52;0.60;;;0.40;;
14837;SDS011;7510;59.296;18.106;2022-09-20T16:44:19;2.00;;;0.67;;
14837;SDS011;7510;59.296;18.106;2022-09-20T16:46:45;2.43;;;0.97;;
14837;SDS011;7510;59.296;18.106;2022-09-20T16:49:11;1.80;;;0.80;;
14837;SDS011;7510;59.296;18.106;2022-09-20T16:51:40;1.87;;;0.70;;
14837;SDS011;7510;59.296;18.106;2022-09-20T16:54:10;2.47;;;0.70;;
14837;SDS011;7510;59.296;18.106;2022-09-20T16:56:41;3.47;;;0.57;;
14837;SDS011;7510;59.296;18.106;2022-09-20T16:59:09;3.90;;;0.93;;
14837;SDS011;7510;59.296;18.106;2022-09-20T17:01:36;0.67;;;0.50;;
14837;SDS011;7510;59.296;18.106;2022-09-20T17:04:04;1.30;;;0.60;;
14837;SDS011;7510;59.296;18.106;2022-09-20T17:06:30;1.70;;;0.90;;
14837;SDS011;7510;59.296;18.106;2022-09-20T17:08:58;1.00;;;0.63;;
14837;SDS011;7510;59.296;18.106;2022-09-20T17:11:28;2.63;;;0.80;;
14837;SDS011;7510;59.296;18.106;2022-09-20T17:13:55;1.33;;;0.70;;
14837;SDS011;7510;59.296;18.106;2022-09-20T17:16:22;2.00;;;0.70;;
14837;SDS011;7510;59.296;18.106;2022-09-20T17:18:55;2.97;;;0.70;;
14837;SDS011;7510;59.296;18.106;2022-09-20T17:21:22;1.23;;;0.77;;
14837;SDS011;7510;59.296;18.106;2022-09-20T17:23:49;1.30;;;0.60;;
14837;SDS011;7510;59.296;18.106;2022-09-20T17:26:21;2.13;;;0.97;;
14837;SDS011;7510;59.296;18.106;2022-09-20T17:28:48;1.37;;;0.40;;
14837;SDS011;7510;59.296;18.106;2022-09-20T17:31:16;0.30;;;0.30;;
14837;SDS011;7510;59.296;18.106;2022-09-20T17:33:45;0.97;;;0.67;;
14837;SDS011;7510;59.296;18.106;2022-09-20T17:36:11;1.07;;;0.60;;
14837;SDS011;7510;59.296;18.106;2022-09-20T17:38:39;3.43;;;0.80;;
14837;SDS011;7510;59.296;18.106;2022-09-20T17:41:06;2.67;;;0.70;;
14837;SDS011;7510;59.296;18.106;2022-09-20T17:43:34;1.13;;;0.70;;
14837;SDS011;7510;59.296;18.106;2022-09-20T17:48:35;4.07;;;0.90;;
14837;SDS011;7510;59.296;18.106;2022-09-20T17:51:01;2.17;;;0.93;;
14837;SDS011;7510;59.296;18.106;2022-09-20T17:53:28;1.43;;;0.70;;
14837;SDS011;7510;59.296;18.106;2022-09-20T17:55:55;1.20;;;0.77;;
14837;SDS011;7510;59.296;18.106;2022-09-20T17:58:22;1.83;;;0.50;;
14837;SDS011;7510;59.296;18.106;2022-09-20T18:00:47;4.77;;;0.83;;
14837;SDS011;7510;59.296;18.106;2022-09-20T18:03:13;2.17;;;0.53;;
14837;SDS011;7510;59.296;18.106;2022-09-20T18:05:39;3.60;;;1.10;;
14837;SDS011;7510;59.296;18.106;2022-09-20T18:08:04;2.87;;;0.77;;
14837;SDS011;7510;59.296;18.106;2022-09-20T18:10:30;1.23;;;0.63;;
14837;SDS011;7510;59.296;18.106;2022-09-20T18:12:55;2.63;;;0.80;;
14837;SDS011;7510;59.296;18.106;2022-09-20T18:15:21;1.13;;;0.80;;
14837;SDS011;7510;59.296;18.106;2022-09-20T18:17:47;2.70;;;0.50;;
14837;SDS011;7510;59.296;18.106;2022-09-20T18:20:13;9.40;;;1.07;;
14837;SDS011;7510;59.296;18.106;2022-09-20T18:22:38;4.63;;;0.83;;
14837;SDS011;7510;59.296;18.106;2022-09-20T18:25:13;2.63;;;0.87;;
14837;SDS011;7510;59.296;18.106;2022-09-20T18:27:38;4.57;;;0.70;;
14837;SDS011;7510;59.296;18.106;2022-09-20T18:30:04;2.93;;;0.50;;
14837;SDS011;7510;59.296;18.106;2022-09-20T18:32:30;4.00;;;0.97;;
14837;SDS011;7510;59.296;18.106;2022-09-20T18:34:56;1.83;;;0.70;;
14837;SDS011;7510;59.296;18.106;2022-09-20T18:37:21;1.60;;;0.80;;
14837;SDS011;7510;59.296;18.106;2022-09-20T18:39:46;4.17;;;0.60;;
14837;SDS011;7510;59.296;18.106;2022-09-20T18:42:13;1.33;;;0.73;;
14837;SDS011;7510;59.296;18.106;2022-09-20T18:44:39;2.60;;;0.80;;
14837;SDS011;7510;59.296;18.106;2022-09-20T18:47:07;0.60;;;0.60;;
14837;SDS011;7510;59.296;18.106;2022-09-20T18:49:33;0.60;;;0.60;;
14837;SDS011;7510;59.296;18.106;2022-09-20T18:51:58;3.40;;;1.20;;
14837;SDS011;7510;59.296;18.106;2022-09-20T18:54:24;1.93;;;0.90;;
14837;SDS011;7510;59.296;18.106;2022-09-20T18:56:51;1.87;;;0.80;;
14837;SDS011;7510;59.296;18.106;2022-09-20T18:59:17;4.00;;;1.10;;
14837;SDS011;7510;59.296;18.106;2022-09-20T19:09:52;2.47;;;1.10;;
14837;SDS011;7510;59.296;18.106;2022-09-20T19:23:04;2.73;;;0.90;;
14837;SDS011;7510;59.296;18.106;2022-09-20T19:25:49;1.73;;;0.90;;
14837;SDS011;7510;59.296;18.106;2022-09-20T19:28:23;1.10;;;0.77;;
14837;SDS011;7510;59.296;18.106;2022-09-20T19:30:49;1.30;;;0.73;;
14837;SDS011;7510;59.296;18.106;2022-09-20T19:33:15;1.60;;;0.90;;
14837;SDS011;7510;59.296;18.106;2022-09-20T19:35:43;2.20;;;1.30;;
14837;SDS011;7510;59.296;18.106;2022-09-20T19:38:13;2.83;;;1.20;;
14837;SDS011;7510;59.296;18.106;2022-09-20T19:41:18;1.43;;;1.17;;
14837;SDS011;7510;59.296;18.106;2022-09-20T19:46:50;2.33;;;0.97;;
14837;SDS011;7510;59.296;18.106;2022-09-20T19:52:07;2.07;;;1.20;;
14837;SDS011;7510;59.296;18.106;2022-09-20T19:54:36;2.70;;;1.60;;
14837;SDS011;7510;59.296;18.106;2022-09-20T19:57:02;6.10;;;1.20;;
14837;SDS011;7510;59.296;18.106;2022-09-20T19:59:32;3.60;;;1.50;;
14837;SDS011;7510;59.296;18.106;2022-09-20T20:01:58;2.90;;;1.17;;
14837;SDS011;7510;59.296;18.106;2022-09-20T20:04:23;7.10;;;1.30;;
14837;SDS011;7510;59.296;18.106;2022-09-20T20:06:58;1.97;;;1.30;;
14837;SDS011;7510;59.296;18.106;2022-09-20T20:22:57;2.23;;;1.30;;
14837;SDS011;7510;59.296;18.106;2022-09-20T20:25:35;4.60;;;1.17;;
14837;SDS011;7510;59.296;18.106;2022-09-20T20:28:12;2.57;;;1.43;;
14837;SDS011;7510;59.296;18.106;2022-09-20T20:30:38;1.97;;;1.23;;
14837;SDS011;7510;59.296;18.106;2022-09-20T20:33:03;2.20;;;1.20;;
14837;SDS011;7510;59.296;18.106;2022-09-20T20:35:30;4.47;;;1.43;;
14837;SDS011;7510;59.296;18.106;2022-09-20T20:37:55;2.33;;;1.30;;
14837;SDS011;7510;59.296;18.106;2022-09-20T20:40:21;3.73;;;1.20;;
14837;SDS011;7510;59.296;18.106;2022-09-20T20:42:46;2.73;;;1.30;;
14837;SDS011;7510;59.296;18.106;2022-09-20T20:45:12;3.60;;;1.50;;
14837;SDS011;7510;59.296;18.106;2022-09-20T20:47:38;5.50;;;1.50;;
14837;SDS011;7510;59.296;18.106;2022-09-20T20:50:05;3.43;;;1.13;;
14837;SDS011;7510;59.296;18.106;2022-09-20T20:52:30;4.43;;;1.20;;
14837;SDS011;7510;59.296;18.106;2022-09-20T20:54:56;4.10;;;1.13;;
14837;SDS011;7510;59.296;18.106;2022-09-20T20:57:24;3.30;;;0.93;;
14837;SDS011;7510;59.296;18.106;2022-09-20T20:59:50;2.13;;;1.00;;
14837;SDS011;7510;59.296;18.106;2022-09-20T21:02:15;2.73;;;1.23;;